sensor_id;sensor_type;location;lat;lon;timestamp;P1;durP1;ratioP1;P2;durP2;ratioP2
61505;SDS011;47366;51.916;4.574;2023-09-18T00:00:24;14.73;;;7.10;;
61505;SDS011;47366;51.916;4.574;2023-09-18T00:02:50;14.80;;;7.53;;
61505;SDS011;47366;51.916;4.574;2023-09-18T00:05:15;17.85;;;8.23;;
61505;SDS011;47366;51.916;4.574;2023-09-18T00:07:41;14.43;;;7.40;;
61505;SDS011;47366;51.916;4.574;2023-09-18T00:10:08;13.00;;;7.18;;
61505;SDS011;47366;51.916;4.574;2023-09-18T00:12:37;13.82;;;6.65;;
61505;SDS011;47366;51.916;4.574;2023-09-18T00:15:03;12.50;;;7.40;;
61505;SDS011;47366;51.916;4.574;2023-09-18T00:17:30;15.38;;;8.02;;
61505;SDS011;47366;51.916;4.574;2023-09-18T00:19:55;13.55;;;7.43;;
61505;SDS011;47366;51.916;4.574;2023-09-18T00:22:20;14.10;;;7.68;;
61505;SDS011;47366;51.916;4.574;2023-09-18T00:24:46;13.15;;;6.97;;
61505;SDS011;47366;51.916;4.574;2023-09-18T00:27:11;15.15;;;7.63;;
61505;SDS011;47366;51.916;4.574;2023-09-18T00:29:36;12.07;;;7.00;;
61505;SDS011;47366;51.916;4.574;2023-09-18T00:32:02;13.20;;;7.72;;
61505;SDS011;47366;51.916;4.574;2023-09-18T00:34:29;12.95;;;6.95;;
61505;SDS011;47366;51.916;4.574;2023-09-18T00:36:57;15.05;;;6.60;;
61505;SDS011;47366;51.916;4.574;2023-09-18T00:39:22;16.55;;;7.18;;
61505;SDS011;47366;51.916;4.574;2023-09-18T00:41:47;14.65;;;7.32;;
61505;SDS011;47366;51.916;4.574;2023-09-18T00:44:16;14.70;;;7.00;;
61505;SDS011;47366;51.916;4.574;2023-09-18T00:46:41;12.77;;;6.82;;
61505;SDS011;47366;51.916;4.574;2023-09-18T00:49:08;13.68;;;7.50;;
61505;SDS011;47366;51.916;4.574;2023-09-18T00:51:35;12.65;;;7.03;;
61505;SDS011;47366;51.916;4.574;2023-09-18T00:54:00;11.27;;;6.88;;
61505;SDS011;47366;51.916;4.574;2023-09-18T00:56:26;12.73;;;7.75;;
61505;SDS011;47366;51.916;4.574;2023-09-18T00:58:52;14.20;;;7.65;;
61505;SDS011;47366;51.916;4.574;2023-09-18T01:01:18;12.20;;;7.32;;
61505;SDS011;47366;51.916;4.574;2023-09-18T01:03:48;15.43;;;7.13;;
61505;SDS011;47366;51.916;4.574;2023-09-18T01:06:15;14.40;;;7.10;;
61505;SDS011;47366;51.916;4.574;2023-09-18T01:08:40;15.40;;;7.28;;
61505;SDS011;47366;51.916;4.574;2023-09-18T01:14:05;10.57;;;6.13;;
61505;SDS011;47366;51.916;4.574;2023-09-18T01:16:47;11.18;;;6.28;;
61505;SDS011;47366;51.916;4.574;2023-09-18T01:19:16;11.32;;;6.50;;
61505;SDS011;47366;51.916;4.574;2023-09-18T01:21:41;16.00;;;7.25;;
61505;SDS011;47366;51.916;4.574;2023-09-18T01:24:07;11.45;;;6.78;;
61505;SDS011;47366;51.916;4.574;2023-09-18T01:26:32;12.02;;;6.57;;
61505;SDS011;47366;51.916;4.574;2023-09-18T01:28:58;12.55;;;7.28;;
61505;SDS011;47366;51.916;4.574;2023-09-18T01:31:23;12.73;;;6.65;;
61505;SDS011;47366;51.916;4.574;2023-09-18T01:33:48;10.60;;;6.63;;
61505;SDS011;47366;51.916;4.574;2023-09-18T01:36:15;10.90;;;6.20;;
61505;SDS011;47366;51.916;4.574;2023-09-18T01:38:42;10.77;;;6.40;;
61505;SDS011;47366;51.916;4.574;2023-09-18T01:41:09;11.35;;;6.65;;
61505;SDS011;47366;51.916;4.574;2023-09-18T01:43:34;11.48;;;6.15;;
61505;SDS011;47366;51.916;4.574;2023-09-18T01:46:00;11.05;;;6.25;;
61505;SDS011;47366;51.916;4.574;2023-09-18T01:48:25;8.50;;;5.93;;
61505;SDS011;47366;51.916;4.574;2023-09-18T01:50:51;13.07;;;6.68;;
61505;SDS011;47366;51.916;4.574;2023-09-18T01:53:17;7.43;;;5.07;;
61505;SDS011;47366;51.916;4.574;2023-09-18T01:55:42;12.00;;;6.38;;
61505;SDS011;47366;51.916;4.574;2023-09-18T01:58:07;8.43;;;5.30;;
61505;SDS011;47366;51.916;4.574;2023-09-18T02:00:34;11.65;;;6.53;;
61505;SDS011;47366;51.916;4.574;2023-09-18T02:02:59;11.30;;;5.68;;
61505;SDS011;47366;51.916;4.574;2023-09-18T02:05:25;11.98;;;5.97;;
61505;SDS011;47366;51.916;4.574;2023-09-18T02:07:50;10.45;;;6.47;;
61505;SDS011;47366;51.916;4.574;2023-09-18T02:10:16;10.13;;;5.80;;
61505;SDS011;47366;51.916;4.574;2023-09-18T02:12:41;9.45;;;5.45;;
61505;SDS011;47366;51.916;4.574;2023-09-18T02:15:07;9.63;;;5.53;;
61505;SDS011;47366;51.916;4.574;2023-09-18T02:17:35;8.73;;;5.05;;
61505;SDS011;47366;51.916;4.574;2023-09-18T02:20:00;9.55;;;4.85;;
61505;SDS011;47366;51.916;4.574;2023-09-18T02:22:31;11.65;;;5.05;;
61505;SDS011;47366;51.916;4.574;2023-09-18T02:24:57;6.85;;;4.72;;
61505;SDS011;47366;51.916;4.574;2023-09-18T02:27:23;8.35;;;4.70;;
61505;SDS011;47366;51.916;4.574;2023-09-18T02:29:48;9.82;;;5.00;;
61505;SDS011;47366;51.916;4.574;2023-09-18T02:32:15;7.65;;;4.93;;
61505;SDS011;47366;51.916;4.574;2023-09-18T02:34:40;9.85;;;5.13;;
61505;SDS011;47366;51.916;4.574;2023-09-18T02:37:05;8.38;;;4.97;;
61505;SDS011;47366;51.916;4.574;2023-09-18T02:39:31;8.15;;;4.75;;
61505;SDS011;47366;51.916;4.574;2023-09-18T02:41:56;9.10;;;5.40;;
61505;SDS011;47366;51.916;4.574;2023-09-18T02:44:21;8.48;;;5.28;;
61505;SDS011;47366;51.916;4.574;2023-09-18T02:46:47;7.78;;;4.80;;
61505;SDS011;47366;51.916;4.574;2023-09-18T02:49:12;11.57;;;5.32;;
61505;SDS011;47366;51.916;4.574;2023-09-18T02:51:37;9.73;;;4.72;;
61505;SDS011;47366;51.916;4.574;2023-09-18T02:54:03;8.82;;;5.10;;
61505;SDS011;47366;51.916;4.574;2023-09-18T02:56:28;7.38;;;4.32;;
61505;SDS011;47366;51.916;4.574;2023-09-18T02:58:54;11.20;;;5.63;;
61505;SDS011;47366;51.916;4.574;2023-09-18T03:01:19;8.93;;;5.22;;
61505;SDS011;47366;51.916;4.574;2023-09-18T03:03:44;8.77;;;4.72;;
61505;SDS011;47366;51.916;4.574;2023-09-18T03:06:10;9.70;;;5.30;;
61505;SDS011;47366;51.916;4.574;2023-09-18T03:08:35;8.18;;;5.05;;
61505;SDS011;47366;51.916;4.574;2023-09-18T03:11:00;10.52;;;5.10;;
61505;SDS011;47366;51.916;4.574;2023-09-18T03:13:29;6.95;;;4.88;;
61505;SDS011;47366;51.916;4.574;2023-09-18T03:15:56;9.63;;;4.60;;
61505;SDS011;47366;51.916;4.574;2023-09-18T03:18:21;6.38;;;3.83;;
61505;SDS011;47366;51.916;4.574;2023-09-18T03:20:46;9.32;;;4.95;;
61505;SDS011;47366;51.916;4.574;2023-09-18T03:23:13;9.48;;;4.93;;
61505;SDS011;47366;51.916;4.574;2023-09-18T03:25:39;7.95;;;4.13;;
61505;SDS011;47366;51.916;4.574;2023-09-18T03:28:04;8.65;;;4.72;;
61505;SDS011;47366;51.916;4.574;2023-09-18T03:30:30;8.68;;;4.35;;
61505;SDS011;47366;51.916;4.574;2023-09-18T03:32:55;6.45;;;3.63;;
61505;SDS011;47366;51.916;4.574;2023-09-18T03:35:21;5.45;;;3.30;;
61505;SDS011;47366;51.916;4.574;2023-09-18T03:37:47;5.30;;;3.00;;
61505;SDS011;47366;51.916;4.574;2023-09-18T03:40:13;6.55;;;2.55;;
61505;SDS011;47366;51.916;4.574;2023-09-18T03:42:38;4.90;;;2.92;;
61505;SDS011;47366;51.916;4.574;2023-09-18T03:45:07;4.65;;;2.85;;
61505;SDS011;47366;51.916;4.574;2023-09-18T03:47:34;9.30;;;3.47;;
61505;SDS011;47366;51.916;4.574;2023-09-18T03:50:01;8.88;;;3.03;;
61505;SDS011;47366;51.916;4.574;2023-09-18T03:52:29;7.18;;;3.00;;
61505;SDS011;47366;51.916;4.574;2023-09-18T03:54:54;10.45;;;2.97;;
61505;SDS011;47366;51.916;4.574;2023-09-18T03:57:20;3.95;;;2.22;;
61505;SDS011;47366;51.916;4.574;2023-09-18T03:59:45;4.75;;;2.47;;
61505;SDS011;47366;51.916;4.574;2023-09-18T04:02:10;5.13;;;2.80;;
61505;SDS011;47366;51.916;4.574;2023-09-18T04:04:36;7.88;;;2.33;;
61505;SDS011;47366;51.916;4.574;2023-09-18T04:07:05;4.25;;;2.40;;
61505;SDS011;47366;51.916;4.574;2023-09-18T04:09:31;5.10;;;3.03;;
61505;SDS011;47366;51.916;4.574;2023-09-18T04:11:56;6.20;;;2.90;;
61505;SDS011;47366;51.916;4.574;2023-09-18T04:14:21;3.38;;;2.20;;
61505;SDS011;47366;51.916;4.574;2023-09-18T04:16:47;5.68;;;2.70;;
61505;SDS011;47366;51.916;4.574;2023-09-18T04:19:12;4.53;;;2.63;;
61505;SDS011;47366;51.916;4.574;2023-09-18T04:21:38;6.68;;;2.88;;
61505;SDS011;47366;51.916;4.574;2023-09-18T04:24:03;3.92;;;2.28;;
61505;SDS011;47366;51.916;4.574;2023-09-18T04:26:29;3.80;;;2.25;;
61505;SDS011;47366;51.916;4.574;2023-09-18T04:28:56;5.40;;;2.90;;
61505;SDS011;47366;51.916;4.574;2023-09-18T04:31:22;6.22;;;2.78;;
61505;SDS011;47366;51.916;4.574;2023-09-18T04:33:47;7.05;;;2.92;;
61505;SDS011;47366;51.916;4.574;2023-09-18T04:36:13;4.53;;;2.72;;
61505;SDS011;47366;51.916;4.574;2023-09-18T04:38:38;7.93;;;2.70;;
61505;SDS011;47366;51.916;4.574;2023-09-18T04:41:04;5.78;;;2.67;;
61505;SDS011;47366;51.916;4.574;2023-09-18T04:43:32;6.40;;;2.50;;
61505;SDS011;47366;51.916;4.574;2023-09-18T04:45:58;4.82;;;2.63;;
61505;SDS011;47366;51.916;4.574;2023-09-18T04:48:23;5.50;;;2.50;;
61505;SDS011;47366;51.916;4.574;2023-09-18T04:50:49;3.47;;;1.98;;
61505;SDS011;47366;51.916;4.574;2023-09-18T04:53:14;5.70;;;2.33;;
61505;SDS011;47366;51.916;4.574;2023-09-18T04:55:39;6.78;;;2.35;;
61505;SDS011;47366;51.916;4.574;2023-09-18T04:58:05;3.35;;;2.22;;
61505;SDS011;47366;51.916;4.574;2023-09-18T05:00:31;4.47;;;2.30;;
61505;SDS011;47366;51.916;4.574;2023-09-18T05:02:58;5.45;;;2.33;;
61505;SDS011;47366;51.916;4.574;2023-09-18T05:05:26;3.03;;;2.08;;
61505;SDS011;47366;51.916;4.574;2023-09-18T05:07:51;5.00;;;2.70;;
61505;SDS011;47366;51.916;4.574;2023-09-18T05:10:17;5.18;;;2.20;;
61505;SDS011;47366;51.916;4.574;2023-09-18T05:12:42;3.47;;;2.15;;
61505;SDS011;47366;51.916;4.574;2023-09-18T05:15:08;8.05;;;2.72;;
61505;SDS011;47366;51.916;4.574;2023-09-18T05:17:42;4.78;;;2.72;;
61505;SDS011;47366;51.916;4.574;2023-09-18T05:22:42;6.07;;;1.98;;
61505;SDS011;47366;51.916;4.574;2023-09-18T05:25:09;7.32;;;3.15;;
61505;SDS011;47366;51.916;4.574;2023-09-18T05:27:35;4.93;;;2.63;;
61505;SDS011;47366;51.916;4.574;2023-09-18T05:30:01;5.25;;;2.53;;
61505;SDS011;47366;51.916;4.574;2023-09-18T05:32:27;5.10;;;2.50;;
61505;SDS011;47366;51.916;4.574;2023-09-18T05:34:52;7.13;;;2.80;;
61505;SDS011;47366;51.916;4.574;2023-09-18T05:37:18;4.43;;;2.25;;
61505;SDS011;47366;51.916;4.574;2023-09-18T05:39:43;4.85;;;2.90;;
61505;SDS011;47366;51.916;4.574;2023-09-18T05:42:08;5.70;;;2.90;;
61505;SDS011;47366;51.916;4.574;2023-09-18T05:44:34;5.80;;;2.72;;
61505;SDS011;47366;51.916;4.574;2023-09-18T05:46:59;6.75;;;2.90;;
61505;SDS011;47366;51.916;4.574;2023-09-18T05:49:25;4.05;;;2.70;;
61505;SDS011;47366;51.916;4.574;2023-09-18T05:51:50;5.47;;;2.45;;
61505;SDS011;47366;51.916;4.574;2023-09-18T05:54:15;7.18;;;2.90;;
61505;SDS011;47366;51.916;4.574;2023-09-18T05:56:41;7.32;;;2.45;;
61505;SDS011;47366;51.916;4.574;2023-09-18T05:59:06;4.65;;;2.60;;
61505;SDS011;47366;51.916;4.574;2023-09-18T06:01:32;4.40;;;2.50;;
61505;SDS011;47366;51.916;4.574;2023-09-18T06:03:58;6.43;;;2.17;;
61505;SDS011;47366;51.916;4.574;2023-09-18T06:06:23;5.15;;;2.88;;
61505;SDS011;47366;51.916;4.574;2023-09-18T06:08:50;3.53;;;2.30;;
61505;SDS011;47366;51.916;4.574;2023-09-18T06:11:20;3.00;;;2.22;;
61505;SDS011;47366;51.916;4.574;2023-09-18T06:13:45;4.40;;;2.42;;
61505;SDS011;47366;51.916;4.574;2023-09-18T06:16:10;4.13;;;2.50;;
61505;SDS011;47366;51.916;4.574;2023-09-18T06:18:36;4.35;;;2.38;;
61505;SDS011;47366;51.916;4.574;2023-09-18T06:21:03;5.28;;;2.45;;
61505;SDS011;47366;51.916;4.574;2023-09-18T06:23:29;5.30;;;2.22;;
61505;SDS011;47366;51.916;4.574;2023-09-18T06:25:54;5.00;;;2.42;;
61505;SDS011;47366;51.916;4.574;2023-09-18T06:28:21;4.95;;;2.05;;
61505;SDS011;47366;51.916;4.574;2023-09-18T06:30:47;3.15;;;2.08;;
61505;SDS011;47366;51.916;4.574;2023-09-18T06:33:13;3.20;;;1.95;;
61505;SDS011;47366;51.916;4.574;2023-09-18T06:35:39;3.75;;;1.90;;
61505;SDS011;47366;51.916;4.574;2023-09-18T06:38:04;4.05;;;2.08;;
61505;SDS011;47366;51.916;4.574;2023-09-18T06:40:31;5.60;;;2.28;;
61505;SDS011;47366;51.916;4.574;2023-09-18T06:43:00;4.55;;;2.33;;
61505;SDS011;47366;51.916;4.574;2023-09-18T06:45:26;5.40;;;2.08;;
61505;SDS011;47366;51.916;4.574;2023-09-18T06:47:52;4.38;;;1.98;;
61505;SDS011;47366;51.916;4.574;2023-09-18T06:50:18;4.38;;;1.80;;
61505;SDS011;47366;51.916;4.574;2023-09-18T06:52:43;2.90;;;1.48;;
61505;SDS011;47366;51.916;4.574;2023-09-18T06:55:09;4.43;;;1.75;;
61505;SDS011;47366;51.916;4.574;2023-09-18T06:57:35;2.67;;;1.55;;
61505;SDS011;47366;51.916;4.574;2023-09-18T07:00:00;3.08;;;1.85;;
61505;SDS011;47366;51.916;4.574;2023-09-18T07:02:25;2.60;;;1.60;;
61505;SDS011;47366;51.916;4.574;2023-09-18T07:04:52;3.28;;;1.55;;
61505;SDS011;47366;51.916;4.574;2023-09-18T07:07:17;3.20;;;1.65;;
61505;SDS011;47366;51.916;4.574;2023-09-18T07:09:49;3.72;;;1.80;;
61505;SDS011;47366;51.916;4.574;2023-09-18T07:12:15;2.38;;;1.27;;
61505;SDS011;47366;51.916;4.574;2023-09-18T07:14:40;2.88;;;1.55;;
61505;SDS011;47366;51.916;4.574;2023-09-18T07:17:06;2.97;;;1.30;;
61505;SDS011;47366;51.916;4.574;2023-09-18T07:19:31;3.28;;;1.30;;
61505;SDS011;47366;51.916;4.574;2023-09-18T07:21:57;5.20;;;1.77;;
61505;SDS011;47366;51.916;4.574;2023-09-18T07:24:22;3.15;;;1.55;;
61505;SDS011;47366;51.916;4.574;2023-09-18T07:26:49;3.50;;;1.20;;
61505;SDS011;47366;51.916;4.574;2023-09-18T07:29:15;3.30;;;1.65;;
61505;SDS011;47366;51.916;4.574;2023-09-18T07:31:44;5.53;;;1.25;;
61505;SDS011;47366;51.916;4.574;2023-09-18T07:34:09;1.65;;;1.10;;
61505;SDS011;47366;51.916;4.574;2023-09-18T07:36:35;4.30;;;1.83;;
61505;SDS011;47366;51.916;4.574;2023-09-18T07:39:01;3.13;;;1.20;;
61505;SDS011;47366;51.916;4.574;2023-09-18T07:41:27;2.13;;;1.50;;
61505;SDS011;47366;51.916;4.574;2023-09-18T07:43:52;2.83;;;1.38;;
61505;SDS011;47366;51.916;4.574;2023-09-18T07:46:18;4.50;;;1.70;;
61505;SDS011;47366;51.916;4.574;2023-09-18T07:48:43;3.38;;;1.45;;
61505;SDS011;47366;51.916;4.574;2023-09-18T07:51:12;2.40;;;1.52;;
61505;SDS011;47366;51.916;4.574;2023-09-18T07:53:37;1.88;;;1.33;;
61505;SDS011;47366;51.916;4.574;2023-09-18T07:56:03;3.33;;;1.77;;
61505;SDS011;47366;51.916;4.574;2023-09-18T07:58:30;2.90;;;1.67;;
61505;SDS011;47366;51.916;4.574;2023-09-18T08:00:56;2.35;;;1.60;;
61505;SDS011;47366;51.916;4.574;2023-09-18T08:03:22;5.10;;;2.00;;
61505;SDS011;47366;51.916;4.574;2023-09-18T08:05:52;5.55;;;1.50;;
61505;SDS011;47366;51.916;4.574;2023-09-18T08:08:18;4.13;;;2.05;;
61505;SDS011;47366;51.916;4.574;2023-09-18T08:10:48;4.35;;;2.08;;
61505;SDS011;47366;51.916;4.574;2023-09-18T08:13:15;2.90;;;1.83;;
61505;SDS011;47366;51.916;4.574;2023-09-18T08:15:41;3.88;;;1.92;;
61505;SDS011;47366;51.916;4.574;2023-09-18T08:18:06;2.47;;;1.65;;
61505;SDS011;47366;51.916;4.574;2023-09-18T08:20:31;5.27;;;1.80;;
61505;SDS011;47366;51.916;4.574;2023-09-18T08:22:58;4.45;;;1.85;;
61505;SDS011;47366;51.916;4.574;2023-09-18T08:25:26;3.35;;;1.92;;
61505;SDS011;47366;51.916;4.574;2023-09-18T08:27:51;2.47;;;1.77;;
61505;SDS011;47366;51.916;4.574;2023-09-18T08:30:17;3.08;;;1.77;;
61505;SDS011;47366;51.916;4.574;2023-09-18T08:32:45;3.42;;;1.55;;
61505;SDS011;47366;51.916;4.574;2023-09-18T08:35:12;3.00;;;1.90;;
61505;SDS011;47366;51.916;4.574;2023-09-18T08:37:37;3.08;;;1.70;;
61505;SDS011;47366;51.916;4.574;2023-09-18T08:40:03;5.30;;;1.60;;
61505;SDS011;47366;51.916;4.574;2023-09-18T08:42:35;3.58;;;1.58;;
61505;SDS011;47366;51.916;4.574;2023-09-18T08:45:03;3.53;;;1.63;;
61505;SDS011;47366;51.916;4.574;2023-09-18T08:47:37;4.90;;;1.63;;
61505;SDS011;47366;51.916;4.574;2023-09-18T08:50:05;9.98;;;2.03;;
61505;SDS011;47366;51.916;4.574;2023-09-18T08:52:33;4.82;;;2.00;;
61505;SDS011;47366;51.916;4.574;2023-09-18T08:55:00;3.47;;;1.90;;
61505;SDS011;47366;51.916;4.574;2023-09-18T08:57:26;2.17;;;1.55;;
61505;SDS011;47366;51.916;4.574;2023-09-18T08:59:53;2.75;;;2.00;;
61505;SDS011;47366;51.916;4.574;2023-09-18T09:02:19;3.25;;;1.70;;
61505;SDS011;47366;51.916;4.574;2023-09-18T09:04:45;3.45;;;1.88;;
61505;SDS011;47366;51.916;4.574;2023-09-18T09:07:10;2.72;;;1.70;;
61505;SDS011;47366;51.916;4.574;2023-09-18T09:09:35;4.93;;;1.90;;
61505;SDS011;47366;51.916;4.574;2023-09-18T09:12:01;2.50;;;1.45;;
61505;SDS011;47366;51.916;4.574;2023-09-18T09:14:26;2.20;;;1.50;;
61505;SDS011;47366;51.916;4.574;2023-09-18T09:16:55;2.22;;;1.42;;
61505;SDS011;47366;51.916;4.574;2023-09-18T09:19:35;7.65;;;1.88;;
61505;SDS011;47366;51.916;4.574;2023-09-18T09:22:07;3.35;;;1.48;;
61505;SDS011;47366;51.916;4.574;2023-09-18T09:24:38;2.22;;;1.45;;
61505;SDS011;47366;51.916;4.574;2023-09-18T09:27:04;1.90;;;1.50;;
61505;SDS011;47366;51.916;4.574;2023-09-18T09:29:30;5.07;;;1.67;;
61505;SDS011;47366;51.916;4.574;2023-09-18T09:31:56;3.10;;;1.67;;
61505;SDS011;47366;51.916;4.574;2023-09-18T09:34:36;2.55;;;1.80;;
61505;SDS011;47366;51.916;4.574;2023-09-18T09:37:02;4.20;;;1.75;;
61505;SDS011;47366;51.916;4.574;2023-09-18T09:39:29;2.47;;;1.58;;
61505;SDS011;47366;51.916;4.574;2023-09-18T09:41:55;2.95;;;1.85;;
61505;SDS011;47366;51.916;4.574;2023-09-18T09:44:31;2.45;;;1.52;;
61505;SDS011;47366;51.916;4.574;2023-09-18T09:46:57;2.85;;;1.70;;
61505;SDS011;47366;51.916;4.574;2023-09-18T09:49:24;5.10;;;1.80;;
61505;SDS011;47366;51.916;4.574;2023-09-18T09:51:53;3.63;;;2.10;;
61505;SDS011;47366;51.916;4.574;2023-09-18T09:54:31;2.15;;;1.63;;
61505;SDS011;47366;51.916;4.574;2023-09-18T09:57:02;2.25;;;1.70;;
61505;SDS011;47366;51.916;4.574;2023-09-18T09:59:28;2.97;;;1.75;;
61505;SDS011;47366;51.916;4.574;2023-09-18T10:01:54;2.70;;;1.52;;
61505;SDS011;47366;51.916;4.574;2023-09-18T10:04:21;8.80;;;2.22;;
61505;SDS011;47366;51.916;4.574;2023-09-18T10:06:52;3.70;;;1.52;;
61505;SDS011;47366;51.916;4.574;2023-09-18T10:09:23;6.18;;;1.80;;
61505;SDS011;47366;51.916;4.574;2023-09-18T10:11:54;3.08;;;1.77;;
61505;SDS011;47366;51.916;4.574;2023-09-18T10:14:26;2.40;;;1.98;;
61505;SDS011;47366;51.916;4.574;2023-09-18T10:16:56;2.95;;;1.70;;
61505;SDS011;47366;51.916;4.574;2023-09-18T10:19:28;3.13;;;1.92;;
61505;SDS011;47366;51.916;4.574;2023-09-18T10:22:06;2.10;;;1.60;;
61505;SDS011;47366;51.916;4.574;2023-09-18T10:24:45;2.55;;;1.83;;
61505;SDS011;47366;51.916;4.574;2023-09-18T10:27:12;3.95;;;1.83;;
61505;SDS011;47366;51.916;4.574;2023-09-18T10:29:39;3.08;;;1.95;;
61505;SDS011;47366;51.916;4.574;2023-09-18T10:32:07;2.05;;;1.60;;
61505;SDS011;47366;51.916;4.574;2023-09-18T10:34:33;4.40;;;1.50;;
61505;SDS011;47366;51.916;4.574;2023-09-18T10:37:00;2.97;;;2.05;;
61505;SDS011;47366;51.916;4.574;2023-09-18T10:39:34;3.42;;;2.10;;
61505;SDS011;47366;51.916;4.574;2023-09-18T10:42:01;1.92;;;1.40;;
61505;SDS011;47366;51.916;4.574;2023-09-18T10:44:28;6.78;;;2.20;;
61505;SDS011;47366;51.916;4.574;2023-09-18T10:46:55;5.30;;;1.77;;
61505;SDS011;47366;51.916;4.574;2023-09-18T10:49:20;5.28;;;1.92;;
61505;SDS011;47366;51.916;4.574;2023-09-18T10:51:47;3.83;;;1.27;;
61505;SDS011;47366;51.916;4.574;2023-09-18T10:54:16;3.17;;;2.03;;
61505;SDS011;47366;51.916;4.574;2023-09-18T10:56:54;2.92;;;1.73;;
61505;SDS011;47366;51.916;4.574;2023-09-18T10:59:21;4.50;;;1.70;;
61505;SDS011;47366;51.916;4.574;2023-09-18T11:01:46;3.45;;;1.90;;
61505;SDS011;47366;51.916;4.574;2023-09-18T11:04:13;3.03;;;1.75;;
61505;SDS011;47366;51.916;4.574;2023-09-18T11:09:23;6.88;;;1.98;;
61505;SDS011;47366;51.916;4.574;2023-09-18T11:14:22;3.70;;;1.90;;
61505;SDS011;47366;51.916;4.574;2023-09-18T11:20:04;2.67;;;1.58;;
61505;SDS011;47366;51.916;4.574;2023-09-18T11:22:37;4.25;;;2.03;;
61505;SDS011;47366;51.916;4.574;2023-09-18T11:28:02;3.03;;;1.73;;
61505;SDS011;47366;51.916;4.574;2023-09-18T11:30:31;3.15;;;1.83;;
61505;SDS011;47366;51.916;4.574;2023-09-18T11:33:00;3.05;;;1.65;;
61505;SDS011;47366;51.916;4.574;2023-09-18T11:35:27;4.18;;;2.10;;
61505;SDS011;47366;51.916;4.574;2023-09-18T11:38:06;5.75;;;1.70;;
61505;SDS011;47366;51.916;4.574;2023-09-18T11:40:34;3.88;;;1.73;;
61505;SDS011;47366;51.916;4.574;2023-09-18T11:45:52;3.78;;;1.63;;
61505;SDS011;47366;51.916;4.574;2023-09-18T11:48:19;3.20;;;1.70;;
61505;SDS011;47366;51.916;4.574;2023-09-18T11:50:47;2.72;;;1.52;;
61505;SDS011;47366;51.916;4.574;2023-09-18T11:53:15;2.30;;;1.52;;
61505;SDS011;47366;51.916;4.574;2023-09-18T11:55:43;4.93;;;1.67;;
61505;SDS011;47366;51.916;4.574;2023-09-18T11:58:08;2.42;;;1.23;;
61505;SDS011;47366;51.916;4.574;2023-09-18T12:00:34;1.90;;;1.40;;
61505;SDS011;47366;51.916;4.574;2023-09-18T12:03:13;3.55;;;1.88;;
61505;SDS011;47366;51.916;4.574;2023-09-18T12:05:53;3.50;;;1.80;;
61505;SDS011;47366;51.916;4.574;2023-09-18T12:08:21;1.88;;;1.05;;
61505;SDS011;47366;51.916;4.574;2023-09-18T12:10:50;3.95;;;1.35;;
61505;SDS011;47366;51.916;4.574;2023-09-18T12:13:16;3.22;;;1.65;;
61505;SDS011;47366;51.916;4.574;2023-09-18T12:15:42;2.33;;;1.55;;
61505;SDS011;47366;51.916;4.574;2023-09-18T12:18:09;3.30;;;1.65;;
61505;SDS011;47366;51.916;4.574;2023-09-18T12:20:37;2.95;;;1.67;;
61505;SDS011;47366;51.916;4.574;2023-09-18T12:23:03;4.05;;;1.65;;
61505;SDS011;47366;51.916;4.574;2023-09-18T12:25:29;2.50;;;1.63;;
61505;SDS011;47366;51.916;4.574;2023-09-18T12:27:54;3.00;;;1.77;;
61505;SDS011;47366;51.916;4.574;2023-09-18T12:30:21;2.40;;;1.52;;
61505;SDS011;47366;51.916;4.574;2023-09-18T12:32:47;3.20;;;1.33;;
61505;SDS011;47366;51.916;4.574;2023-09-18T12:35:17;2.78;;;1.30;;
61505;SDS011;47366;51.916;4.574;2023-09-18T12:37:45;3.55;;;1.80;;
61505;SDS011;47366;51.916;4.574;2023-09-18T12:40:27;2.60;;;1.58;;
61505;SDS011;47366;51.916;4.574;2023-09-18T12:42:58;2.30;;;1.55;;
61505;SDS011;47366;51.916;4.574;2023-09-18T12:45:24;2.72;;;1.50;;
61505;SDS011;47366;51.916;4.574;2023-09-18T12:47:51;3.55;;;1.35;;
61505;SDS011;47366;51.916;4.574;2023-09-18T12:50:19;3.70;;;1.42;;
61505;SDS011;47366;51.916;4.574;2023-09-18T12:52:44;5.68;;;1.88;;
61505;SDS011;47366;51.916;4.574;2023-09-18T12:55:25;5.57;;;1.30;;
61505;SDS011;47366;51.916;4.574;2023-09-18T12:57:52;2.90;;;1.40;;
61505;SDS011;47366;51.916;4.574;2023-09-18T13:00:19;3.05;;;1.60;;
61505;SDS011;47366;51.916;4.574;2023-09-18T13:02:48;2.22;;;1.55;;
61505;SDS011;47366;51.916;4.574;2023-09-18T13:05:18;1.60;;;1.17;;
61505;SDS011;47366;51.916;4.574;2023-09-18T13:07:45;2.38;;;1.30;;
61505;SDS011;47366;51.916;4.574;2023-09-18T13:10:10;3.10;;;1.67;;
61505;SDS011;47366;51.916;4.574;2023-09-18T13:12:45;6.03;;;1.52;;
61505;SDS011;47366;51.916;4.574;2023-09-18T13:15:11;3.20;;;1.42;;
61505;SDS011;47366;51.916;4.574;2023-09-18T13:17:46;2.40;;;1.27;;
61505;SDS011;47366;51.916;4.574;2023-09-18T13:20:13;2.40;;;1.33;;
61505;SDS011;47366;51.916;4.574;2023-09-18T13:22:40;2.47;;;1.35;;
61505;SDS011;47366;51.916;4.574;2023-09-18T13:25:07;1.42;;;1.15;;
61505;SDS011;47366;51.916;4.574;2023-09-18T13:27:36;1.23;;;1.08;;
61505;SDS011;47366;51.916;4.574;2023-09-18T13:30:04;1.88;;;1.35;;
61505;SDS011;47366;51.916;4.574;2023-09-18T13:32:32;2.67;;;1.30;;
61505;SDS011;47366;51.916;4.574;2023-09-18T13:34:59;1.98;;;1.30;;
61505;SDS011;47366;51.916;4.574;2023-09-18T13:37:24;2.03;;;1.30;;
61505;SDS011;47366;51.916;4.574;2023-09-18T13:39:51;1.80;;;1.23;;
61505;SDS011;47366;51.916;4.574;2023-09-18T13:42:16;4.90;;;1.63;;
61505;SDS011;47366;51.916;4.574;2023-09-18T13:44:41;2.60;;;1.33;;
61505;SDS011;47366;51.916;4.574;2023-09-18T13:47:07;3.95;;;1.23;;
61505;SDS011;47366;51.916;4.574;2023-09-18T13:49:32;1.90;;;1.08;;
61505;SDS011;47366;51.916;4.574;2023-09-18T13:51:57;2.50;;;1.20;;
61505;SDS011;47366;51.916;4.574;2023-09-18T13:54:23;2.63;;;1.30;;
61505;SDS011;47366;51.916;4.574;2023-09-18T13:56:48;1.77;;;1.17;;
61505;SDS011;47366;51.916;4.574;2023-09-18T13:59:13;1.40;;;1.10;;
61505;SDS011;47366;51.916;4.574;2023-09-18T14:01:39;1.88;;;1.17;;
61505;SDS011;47366;51.916;4.574;2023-09-18T14:04:04;1.40;;;1.00;;
61505;SDS011;47366;51.916;4.574;2023-09-18T14:06:30;1.00;;;0.85;;
61505;SDS011;47366;51.916;4.574;2023-09-18T14:08:55;1.20;;;0.95;;
61505;SDS011;47366;51.916;4.574;2023-09-18T14:11:20;3.05;;;1.10;;
61505;SDS011;47366;51.916;4.574;2023-09-18T14:13:46;4.15;;;1.38;;
61505;SDS011;47366;51.916;4.574;2023-09-18T14:16:12;2.33;;;1.25;;
61505;SDS011;47366;51.916;4.574;2023-09-18T14:18:39;4.03;;;1.30;;
61505;SDS011;47366;51.916;4.574;2023-09-18T14:21:04;4.15;;;1.30;;
61505;SDS011;47366;51.916;4.574;2023-09-18T14:23:31;2.30;;;1.35;;
61505;SDS011;47366;51.916;4.574;2023-09-18T14:25:58;6.25;;;1.27;;
61505;SDS011;47366;51.916;4.574;2023-09-18T14:28:25;1.98;;;1.33;;
61505;SDS011;47366;51.916;4.574;2023-09-18T14:30:51;2.80;;;1.02;;
61505;SDS011;47366;51.916;4.574;2023-09-18T14:33:16;1.17;;;0.93;;
61505;SDS011;47366;51.916;4.574;2023-09-18T14:35:41;0.75;;;0.40;;
61505;SDS011;47366;51.916;4.574;2023-09-18T14:38:07;0.68;;;0.30;;
61505;SDS011;47366;51.916;4.574;2023-09-18T14:40:33;0.75;;;0.30;;
61505;SDS011;47366;51.916;4.574;2023-09-18T14:42:58;1.08;;;0.47;;
61505;SDS011;47366;51.916;4.574;2023-09-18T14:45:24;0.90;;;0.30;;
61505;SDS011;47366;51.916;4.574;2023-09-18T14:47:50;1.05;;;0.40;;
61505;SDS011;47366;51.916;4.574;2023-09-18T14:50:15;1.20;;;0.32;;
61505;SDS011;47366;51.916;4.574;2023-09-18T14:52:41;6.85;;;0.60;;
61505;SDS011;47366;51.916;4.574;2023-09-18T14:55:06;2.67;;;0.50;;
61505;SDS011;47366;51.916;4.574;2023-09-18T14:57:32;3.25;;;0.57;;
61505;SDS011;47366;51.916;4.574;2023-09-18T14:59:57;2.53;;;0.80;;
61505;SDS011;47366;51.916;4.574;2023-09-18T15:02:22;4.38;;;0.75;;